Aviation Digital Data Service (ADDS)

Output produced by METARs form (1311 UTC 21 May 2018)
found at http://aviationweather.gov/adds/metars/
 
KMSY 211253Z 00000KT 10SM FEW023 FEW130 BKN250 27/23 A3003 RMK AO2 SLP172 CB DSNT E T02670233